createdAt,value
2019-03-17T04:51:01.267Z,0.1
2019-03-17T04:54:01.152Z,0.3
2019-03-17T04:55:01.116Z,0.5
2019-03-17T04:56:01.088Z,0.7
2019-03-17T04:57:02.279Z,0.9
2019-03-17T04:58:01.088Z,1.3
2019-03-17T04:59:01.087Z,1.7
2019-03-17T05:00:06.102Z,2.3
2019-03-17T05:01:01.097Z,3.2
2019-03-17T05:02:01.303Z,4.3
2019-03-17T05:03:01.090Z,5.5
2019-03-17T05:04:01.100Z,6.8
2019-03-17T05:05:06.096Z,8.4
2019-03-17T05:06:01.098Z,10.3
2019-03-17T05:07:01.260Z,12.4
2019-03-17T05:08:01.107Z,14.7
2019-03-17T05:09:01.102Z,17.2
2019-03-17T05:10:01.094Z,20.3
2019-03-17T05:11:01.107Z,24.0
2019-03-17T05:12:01.241Z,28.4
2019-03-17T05:13:01.104Z,33.5
2019-03-17T05:14:01.103Z,39.3
2019-03-17T05:15:06.095Z,46.1
2019-03-17T05:16:01.096Z,54.4
2019-03-17T05:17:01.253Z,64.5
2019-03-17T05:18:01.118Z,76.3
2019-03-17T05:19:01.095Z,89.9
2019-03-17T05:20:06.063Z,105.2
2019-03-17T05:21:01.101Z,122.4
2019-03-17T05:22:01.249Z,141.9
2019-03-17T05:23:01.102Z,164.4
2019-03-17T05:24:01.098Z,191.9
2019-03-17T05:25:06.120Z,225.3
2019-03-17T05:26:01.106Z,265.9
2019-03-17T05:27:01.259Z,312.9
2019-03-17T05:28:01.098Z,363.7
2019-03-17T05:29:01.097Z,420.2
2019-03-17T05:30:06.102Z,484.8
2019-03-17T05:31:01.065Z,556.3
2019-03-17T05:32:01.247Z,629.9
2019-03-17T05:33:01.076Z,704.4
2019-03-17T05:34:01.104Z,781.6
2019-03-17T05:35:01.133Z,864.5
2019-03-17T05:36:01.107Z,958.6
2019-03-17T05:37:06.358Z,1060.5
2019-03-17T05:38:01.163Z,1165.4
2019-03-17T05:39:01.111Z,1271.6
2019-03-17T05:40:06.136Z,1382.8
2019-03-17T05:41:01.109Z,1495.5
2019-03-17T05:42:01.252Z,1606.3
2019-03-17T05:43:01.106Z,1724.8
2019-03-17T05:44:01.106Z,1856.9
2019-03-17T05:46:01.085Z,2029.7
2019-03-17T05:47:01.318Z,2205.7
2019-03-17T05:48:01.091Z,2361.1
2019-03-17T05:49:01.086Z,2500.2
2019-03-17T05:50:02.234Z,2633.5
2019-03-17T05:51:01.090Z,2793.4
2019-03-17T05:52:01.249Z,2950.6
2019-03-17T05:53:01.094Z,3117.1
2019-03-17T05:54:01.091Z,3249.6
2019-03-17T05:55:01.530Z,3406.9
2019-03-17T05:56:06.099Z,3524.5
2019-03-17T05:57:01.236Z,3678.5
2019-03-17T05:58:01.092Z,3856.8
2019-03-17T05:59:06.085Z,3999.4
2019-03-17T06:00:01.089Z,4078.2
2019-03-17T06:01:01.095Z,4129.3
2019-03-17T06:02:01.244Z,4165.7
2019-03-17T06:03:06.099Z,4203.5
2019-03-17T06:04:01.098Z,4276.3
2019-03-17T06:05:01.103Z,4363.0
2019-03-17T06:06:01.100Z,4424.9
2019-03-17T06:07:01.241Z,4470.7
2019-03-17T06:08:01.131Z,4524.3
2019-03-17T06:09:02.187Z,4690.7
2019-03-17T06:10:01.099Z,4886.8
2019-03-17T06:11:01.093Z,5157.1
2019-03-17T06:12:01.238Z,5480.1
2019-03-17T06:13:01.132Z,5842.1
2019-03-17T06:14:01.101Z,6267.3
2019-03-17T06:15:01.102Z,6818.5
2019-03-17T06:16:01.095Z,7389.1
2019-03-17T06:17:01.247Z,7942.6
2019-03-17T06:18:01.139Z,8567.1
2019-03-17T06:19:01.096Z,9206.5
2019-03-17T06:20:01.092Z,9862.5
2019-03-17T06:21:01.093Z,10537.4
2019-03-17T06:22:01.307Z,11236.2
2019-03-17T06:23:01.131Z,11902.6
2019-03-17T06:24:01.095Z,12496.5
2019-03-17T06:25:01.103Z,13042.3
2019-03-17T06:26:01.097Z,13566.1
2019-03-17T06:27:01.241Z,13986.7
2019-03-17T06:28:01.128Z,14319.0
2019-03-17T06:29:01.101Z,14625.6
2019-03-17T06:30:01.097Z,14909.5
2019-03-17T06:31:01.103Z,15265.6
2019-03-17T06:32:01.250Z,15723.6
2019-03-17T06:33:01.129Z,16179.4
2019-03-17T06:34:01.837Z,16632.7
2019-03-17T06:35:01.065Z,17080.5
2019-03-17T06:36:01.097Z,17592.7
2019-03-17T06:37:01.303Z,18080.7
2019-03-17T06:38:06.142Z,18507.9
2019-03-17T06:39:01.065Z,18899.3
2019-03-17T06:40:01.096Z,19239.4
2019-03-17T06:41:04.092Z,19555.3
2019-03-17T06:42:01.249Z,19939.1
2019-03-17T06:43:01.110Z,20473.9
2019-03-17T06:44:01.098Z,21161.3
2019-03-17T06:45:01.108Z,22000.7
2019-03-17T06:46:01.108Z,22664.5
2019-03-17T06:47:01.442Z,23000.6
2019-03-17T06:48:01.134Z,23220.1
2019-03-17T06:49:01.096Z,23572.2
2019-03-17T06:50:01.157Z,23991.1
2019-03-17T06:51:01.985Z,24411.8
2019-03-17T06:52:01.321Z,24852.7
2019-03-17T06:53:01.234Z,25500.0
2019-03-17T06:54:01.100Z,26298.9
2019-03-17T06:55:01.102Z,27168.0
2019-03-17T06:56:01.109Z,28134.7
2019-03-17T06:57:01.258Z,29045.9
2019-03-17T06:58:01.221Z,30043.0
2019-03-17T06:59:01.105Z,31068.1
2019-03-17T07:00:01.111Z,32233.3
2019-03-17T07:01:01.110Z,33552.3
2019-03-17T07:02:01.296Z,34982.4
2019-03-17T07:03:01.115Z,36403.6
2019-03-17T07:04:01.106Z,37469.3
2019-03-17T07:05:01.144Z,38386.3
2019-03-17T07:06:01.111Z,39059.3
2019-03-17T07:07:01.327Z,39540.4
2019-03-17T07:08:01.110Z,39723.3
2019-03-17T07:09:01.109Z,39771.3
2019-03-17T07:11:01.156Z,40827.3
2019-03-17T07:12:01.219Z,42182.8
2019-03-17T07:13:02.111Z,43823.3
2019-03-17T07:14:01.093Z,45572.3
2019-03-17T07:15:06.086Z,47179.9
2019-03-17T07:16:01.090Z,48428.1
2019-03-17T07:17:01.237Z,49502.4
2019-03-17T07:18:01.089Z,50589.7
2019-03-17T07:19:01.089Z,51618.5
2019-03-17T07:20:06.086Z,52832.3
2019-03-17T07:21:01.091Z,54449.5
2019-03-17T07:22:01.246Z,56216.1
2019-03-17T07:23:01.097Z,58160.1
2019-03-17T07:24:01.090Z,60261.7
2019-03-17T07:25:01.117Z,62369.7
2019-03-17T07:26:01.095Z,63279.4
2019-03-17T07:27:01.243Z,62970.3
2019-03-17T07:28:01.096Z,61917.6
2019-03-17T07:29:01.098Z,60206.8
2019-03-17T07:30:06.086Z,58426.2
2019-03-17T07:31:01.474Z,56718.1
2019-03-17T07:32:01.308Z,55287.0
2019-03-17T07:33:01.096Z,54138.9
2019-03-17T07:34:01.108Z,53186.2
2019-03-17T07:35:01.124Z,51929.1
2019-03-17T07:36:01.100Z,50654.0
2019-03-17T07:37:01.264Z,49936.5
2019-03-17T07:38:01.095Z,49119.2
2019-03-17T07:39:11.015Z,48242.3
2019-03-17T07:40:06.117Z,48237.8
2019-03-17T07:41:01.093Z,48396.3
2019-03-17T07:42:01.315Z,49376.8
2019-03-17T07:43:01.105Z,50808.2
2019-03-17T07:44:01.092Z,52571.9
2019-03-17T07:45:06.110Z,54352.5
2019-03-17T07:46:01.099Z,56067.8
2019-03-17T07:47:01.303Z,57588.3
2019-03-17T07:48:01.103Z,58947.3
2019-03-17T07:49:01.107Z,60241.4
2019-03-17T07:50:06.106Z,61843.7
2019-03-17T07:51:01.108Z,63118.8
2019-03-17T07:52:01.254Z,63836.3
2019-03-17T07:53:01.111Z,64653.6
2019-03-17T07:55:01.188Z,65530.5
2019-03-17T07:56:01.097Z,65535.0
2019-03-17T08:00:01.287Z,65535.0
2019-03-17T08:07:01.376Z,65111.6
2019-03-17T08:08:09.043Z,64139.8
2019-03-17T08:09:01.098Z,63030.5
2019-03-17T08:10:01.102Z,62209.9
2019-03-17T08:11:01.101Z,61128.3
2019-03-17T08:12:01.252Z,60361.5
2019-03-17T08:15:01.135Z,59987.3
2019-03-17T08:16:01.101Z,59826.1
2019-03-17T08:22:01.255Z,60249.5
2019-03-17T08:23:01.101Z,61221.3
2019-03-17T08:24:01.113Z,62330.7
2019-03-17T08:25:01.106Z,63151.3
2019-03-17T08:26:01.104Z,64232.8
2019-03-17T08:27:01.348Z,64999.7
2019-03-17T08:28:01.103Z,64198.3
2019-03-17T08:29:01.100Z,63448.0
2019-03-17T08:30:01.074Z,63822.1
2019-03-17T08:31:01.100Z,63983.3
2019-03-17T08:43:01.142Z,64784.7
2019-03-17T08:44:01.110Z,65535.0
2019-03-17T08:45:01.247Z,65535.0
2019-03-17T09:00:01.364Z,65535.0
2019-03-17T09:15:01.375Z,65535.0
2019-03-17T09:30:01.261Z,65535.0
2019-03-17T09:45:01.445Z,65535.0
2019-03-17T10:00:01.402Z,65535.0
2019-03-17T10:15:01.385Z,65535.0
2019-03-17T10:30:01.305Z,65535.0
2019-03-17T10:45:01.413Z,65535.0
2019-03-17T11:00:01.407Z,65535.0
2019-03-17T11:03:06.102Z,65428.2
2019-03-17T11:04:01.102Z,65330.1
2019-03-17T11:05:01.333Z,64939.5
2019-03-17T11:15:01.251Z,64939.5
2019-03-17T11:18:06.108Z,65046.3
2019-03-17T11:19:01.099Z,65144.4
2019-03-17T11:20:01.311Z,65535.0
2019-03-17T11:30:01.244Z,65535.0
2019-03-17T11:45:01.335Z,65535.0
2019-03-17T12:00:01.408Z,65535.0
2019-03-17T12:15:01.368Z,65535.0
2019-03-17T12:23:01.162Z,64763.4
2019-03-17T12:30:01.270Z,64763.4
2019-03-17T12:38:01.101Z,65535.0
2019-03-17T12:45:01.388Z,65535.0
2019-03-17T12:55:01.376Z,65307.7
2019-03-17T13:00:01.256Z,65307.7
2019-03-17T13:10:01.255Z,65535.0
2019-03-17T13:15:01.393Z,65535.0
2019-03-17T13:30:01.316Z,65535.0
2019-03-17T13:45:01.382Z,65535.0
2019-03-17T14:00:01.340Z,65535.0
2019-03-17T14:15:01.271Z,65535.0
2019-03-17T14:30:01.459Z,65535.0
2019-03-17T14:45:01.395Z,65535.0
2019-03-17T15:00:01.329Z,65535.0
2019-03-17T15:15:01.416Z,65535.0
2019-03-17T15:27:01.374Z,65199.7
2019-03-17T15:30:01.084Z,65032.1
2019-03-17T15:35:01.365Z,64903.4
2019-03-17T15:36:01.094Z,64846.5
2019-03-17T15:38:01.095Z,64752.6
2019-03-17T15:39:01.098Z,64728.0
2019-03-17T15:40:01.355Z,64348.4
2019-03-17T15:41:01.095Z,64115.2
2019-03-17T15:42:01.096Z,64071.2
2019-03-17T15:43:01.100Z,63598.9
2019-03-17T15:44:01.138Z,63582.8
2019-03-17T15:45:01.239Z,63275.5
2019-03-17T15:50:01.240Z,63404.3
2019-03-17T15:51:01.089Z,63461.2
2019-03-17T15:52:01.099Z,63290.3
2019-03-17T15:53:01.121Z,62601.2
2019-03-17T15:54:01.095Z,61876.3
2019-03-17T15:55:01.253Z,60585.7
2019-03-17T15:56:01.098Z,58995.3
2019-03-17T15:57:01.096Z,57414.1
2019-03-17T15:58:06.108Z,56217.0
2019-03-17T15:59:01.091Z,54704.3
2019-03-17T16:00:01.234Z,53962.8
2019-03-17T16:01:01.090Z,52274.5
2019-03-17T16:02:01.094Z,50260.1
2019-03-17T16:03:01.112Z,48759.1
2019-03-17T16:04:02.040Z,47828.7
2019-03-17T16:05:01.304Z,46247.3
2019-03-17T16:06:01.089Z,44075.4
2019-03-17T16:07:01.062Z,41730.5
2019-03-17T16:08:01.115Z,40090.9
2019-03-17T16:09:01.094Z,39253.9
2019-03-17T16:10:01.269Z,38836.5
2019-03-17T16:11:01.100Z,38102.5
2019-03-17T16:12:01.065Z,37434.1
2019-03-17T16:13:01.117Z,36362.3
2019-03-17T16:14:01.094Z,34919.4
2019-03-17T16:15:01.245Z,33057.1
2019-03-17T16:16:01.064Z,31553.3
2019-03-17T16:17:01.097Z,30388.6
2019-03-17T16:18:06.095Z,28815.5
2019-03-17T16:19:01.096Z,27169.2
2019-03-17T16:20:01.310Z,28007.4
2019-03-17T16:21:01.102Z,29517.3
2019-03-17T16:22:01.069Z,30504.8
2019-03-17T16:23:01.139Z,30688.4
2019-03-17T16:24:01.097Z,29660.7
2019-03-17T16:25:01.251Z,29021.1
2019-03-17T16:26:01.098Z,28745.3
2019-03-17T16:27:01.098Z,28656.1
2019-03-17T16:28:01.132Z,28888.2
2019-03-17T16:29:01.387Z,29293.1
2019-03-17T16:30:01.243Z,29834.3
2019-03-17T16:31:01.110Z,30725.4
2019-03-17T16:32:01.108Z,31463.7
2019-03-17T16:33:06.106Z,32249.9
2019-03-17T16:34:01.104Z,32206.3
2019-03-17T16:35:01.258Z,30073.3
2019-03-17T16:36:01.106Z,27887.5
2019-03-17T16:37:01.109Z,26562.7
2019-03-17T16:38:06.118Z,25993.5
2019-03-17T16:39:01.104Z,25926.7
2019-03-17T16:40:01.278Z,26012.3
2019-03-17T16:41:01.258Z,26317.6
2019-03-17T16:42:01.104Z,26306.4
2019-03-17T16:43:01.144Z,26057.1
2019-03-17T16:44:01.097Z,25827.5
2019-03-17T16:45:01.261Z,25280.6
2019-03-17T16:47:01.088Z,24451.8
2019-03-17T16:48:01.128Z,23836.3
2019-03-17T16:49:01.081Z,22893.0
2019-03-17T16:50:01.083Z,22354.3
2019-03-17T16:51:02.599Z,22108.2
2019-03-17T16:52:01.088Z,21801.1
2019-03-17T16:53:01.129Z,21296.8
2019-03-17T16:54:01.100Z,20680.6
2019-03-17T16:55:01.097Z,19853.8
2019-03-17T16:56:01.232Z,18877.5
2019-03-17T16:57:01.089Z,17767.6
2019-03-17T16:58:01.127Z,16879.3
2019-03-17T16:59:01.091Z,15993.7
2019-03-17T17:00:01.110Z,15168.1
2019-03-17T17:01:01.248Z,14593.7
2019-03-17T17:02:01.089Z,14066.3
2019-03-17T17:03:01.127Z,13395.7
2019-03-17T17:04:01.091Z,12806.7
2019-03-17T17:05:01.098Z,12128.1
2019-03-17T17:06:01.242Z,11416.2
2019-03-17T17:07:01.088Z,10816.2
2019-03-17T17:08:01.065Z,10504.7
2019-03-17T17:09:01.126Z,10243.6
2019-03-17T17:10:01.092Z,10055.9
2019-03-17T17:11:01.239Z,9950.7
2019-03-17T17:12:01.097Z,9821.8
2019-03-17T17:13:02.079Z,9587.9
2019-03-17T17:14:01.090Z,9317.1
2019-03-17T17:15:06.097Z,8987.7
2019-03-17T17:16:01.251Z,8685.4
2019-03-17T17:17:01.087Z,8353.1
2019-03-17T17:18:01.095Z,8069.3
2019-03-17T17:19:01.091Z,7849.7
2019-03-17T17:20:01.128Z,7627.9
2019-03-17T17:21:01.243Z,7376.6
2019-03-17T17:22:01.098Z,7021.4
2019-03-17T17:23:06.106Z,6563.5
2019-03-17T17:24:01.090Z,6121.1
2019-03-17T17:25:01.099Z,5671.4
2019-03-17T17:26:01.251Z,5227.4
2019-03-17T17:27:01.105Z,4808.1
2019-03-17T17:28:06.107Z,4458.0
2019-03-17T17:29:01.104Z,4157.4
2019-03-17T17:30:01.105Z,3880.7
2019-03-17T17:31:01.257Z,3601.4
2019-03-17T17:32:01.103Z,3338.7
2019-03-17T17:33:06.116Z,3086.3
2019-03-17T17:35:01.098Z,2842.6
2019-03-17T17:36:01.269Z,2608.9
2019-03-17T17:37:02.023Z,2393.0
2019-03-17T17:38:01.109Z,2194.0
2019-03-17T17:39:01.084Z,2004.4
2019-03-17T17:40:01.082Z,1809.4
2019-03-17T17:41:01.232Z,1625.9
2019-03-17T17:42:08.590Z,1459.2
2019-03-17T17:43:01.108Z,1306.9
2019-03-17T17:44:01.085Z,1165.7
2019-03-17T17:45:01.092Z,1034.5
2019-03-17T17:46:01.248Z,912.9
2019-03-17T17:47:01.102Z,800.8
2019-03-17T17:48:06.102Z,698.1
2019-03-17T17:49:01.096Z,604.3
2019-03-17T17:50:01.085Z,529.1
2019-03-17T17:51:01.203Z,461.7
2019-03-17T17:52:03.481Z,401.3
2019-03-17T17:53:06.106Z,347.7
2019-03-17T17:54:01.104Z,300.2
2019-03-17T17:55:01.100Z,258.5
2019-03-17T17:56:01.244Z,221.9
2019-03-17T17:57:01.131Z,189.9
2019-03-17T17:58:01.067Z,162.1
2019-03-17T17:59:01.101Z,138.2
2019-03-17T18:00:01.107Z,117.5
2019-03-17T18:01:01.247Z,99.8
2019-03-17T18:02:01.093Z,84.6
2019-03-17T18:03:01.108Z,71.6
2019-03-17T18:04:01.101Z,60.6
2019-03-17T18:05:01.075Z,51.2
2019-03-17T18:06:01.310Z,43.3
2019-03-17T18:07:06.100Z,36.6
2019-03-17T18:08:01.098Z,30.9
2019-03-17T18:09:01.068Z,26.1
2019-03-17T18:10:01.104Z,22.0
2019-03-17T18:11:01.250Z,18.5
2019-03-17T18:12:01.130Z,15.7
2019-03-17T18:13:01.103Z,13.2
2019-03-17T18:14:01.098Z,11.1
2019-03-17T18:15:01.109Z,9.4
2019-03-17T18:16:01.257Z,7.9
2019-03-17T18:17:01.122Z,6.7
2019-03-17T18:18:01.109Z,5.7
2019-03-17T18:19:01.106Z,4.8
2019-03-17T18:20:01.129Z,4.1
2019-03-17T18:21:01.253Z,3.5
2019-03-17T18:22:01.138Z,2.9
2019-03-17T18:23:01.105Z,2.5
2019-03-17T18:24:01.106Z,2.2
2019-03-17T18:26:01.237Z,1.9
2019-03-17T18:27:01.087Z,1.7
2019-03-17T18:28:01.110Z,1.5
2019-03-17T18:29:01.093Z,1.4
2019-03-17T18:30:01.097Z,1.3
2019-03-17T18:31:01.211Z,1.2
2019-03-17T18:32:01.098Z,1.1
2019-03-17T18:34:01.159Z,1.0
2019-03-17T18:39:01.099Z,0.9
2019-03-17T18:45:06.168Z,0.9
2019-03-17T18:59:01.103Z,0.8
2019-03-17T19:00:01.108Z,0.8
2019-03-17T19:01:01.246Z,0.7
2019-03-17T19:03:01.160Z,0.6
2019-03-17T19:06:01.247Z,0.5
2019-03-17T19:09:01.095Z,0.4
2019-03-17T19:11:02.209Z,0.3
2019-03-17T19:12:01.128Z,0.4
2019-03-17T19:15:01.169Z,0.4
2019-03-17T19:16:01.327Z,0.5
2019-03-17T19:28:01.325Z,0.4
2019-03-17T19:30:01.118Z,0.3
2019-03-17T19:32:01.103Z,0.2
2019-03-17T19:37:01.447Z,0.1
2019-03-17T19:56:02.067Z,0.1
2019-03-17T20:00:01.102Z,0.1
2019-03-17T20:06:02.313Z,0.2
2019-03-17T20:07:01.095Z,0.3
2019-03-17T20:11:01.274Z,0.2
2019-03-17T20:13:10.678Z,0.1
2019-03-17T20:14:01.096Z,0.2
2019-03-17T20:15:01.102Z,0.2
2019-03-17T20:16:01.308Z,0.3
2019-03-17T20:20:01.109Z,0.4
2019-03-17T20:21:01.292Z,0.3
2019-03-17T20:29:01.096Z,0.4
2019-03-17T20:30:01.101Z,0.3
2019-03-17T20:33:01.094Z,0.2
2019-03-17T20:44:01.347Z,0.1
2019-03-17T20:45:06.116Z,0.1
2019-03-17T21:31:06.108Z,0.1
2019-03-17T21:44:01.379Z,0.2
2019-03-17T21:45:01.104Z,0.3
2019-03-17T21:49:01.317Z,0.4
2019-03-17T21:50:01.107Z,0.5
2019-03-17T21:56:01.317Z,0.6
2019-03-17T21:58:07.522Z,0.5
2019-03-17T22:00:01.118Z,0.5
2019-03-17T22:01:01.265Z,0.4
2019-03-17T22:03:01.164Z,0.3
2019-03-17T22:11:01.140Z,0.2
2019-03-17T22:15:01.380Z,0.2
2019-03-17T22:20:01.243Z,0.1
2019-03-17T22:24:01.225Z,0.2
2019-03-17T22:25:01.297Z,0.3
2019-03-17T22:28:08.001Z,0.4
2019-03-17T22:30:01.236Z,0.4
2019-03-17T22:31:01.102Z,0.3
2019-03-17T22:39:01.587Z,0.2
2019-03-17T22:40:01.605Z,0.1
2019-03-17T22:55:01.094Z,0.1
2019-03-17T22:57:06.105Z,0.2
2019-03-17T22:58:01.099Z,0.3
2019-03-17T23:00:01.337Z,0.4
2019-03-17T23:01:01.098Z,0.5
2019-03-17T23:11:01.104Z,0.4
2019-03-17T23:12:02.157Z,0.3
2019-03-17T23:14:01.417Z,0.2
2019-03-17T23:15:01.103Z,0.1
2019-03-17T23:17:01.110Z,0.2
2019-03-17T23:18:01.119Z,0.3
2019-03-17T23:21:01.348Z,0.4
2019-03-17T23:22:01.113Z,0.5
2019-03-17T23:24:01.243Z,0.6
2019-03-17T23:25:06.121Z,0.7
2019-03-17T23:27:01.316Z,0.8
2019-03-17T23:28:01.110Z,0.9
2019-03-17T23:30:01.141Z,1.0
2019-03-17T23:36:01.335Z,0.9
2019-03-17T23:40:01.086Z,0.8
2019-03-17T23:41:01.206Z,0.7
2019-03-17T23:45:01.104Z,0.7
2019-03-17T23:54:01.402Z,0.6
2019-03-17T23:55:01.103Z,0.7
